createdAt,value
2022-10-11T00:01:28.708Z,12.10
2022-10-11T00:03:56.323Z,11.50
2022-10-11T00:06:23.261Z,12.45
2022-10-11T00:08:50.109Z,12.32
2022-10-11T00:11:17.042Z,13.65
2022-10-11T00:13:44.053Z,14.52
2022-10-11T00:16:11.489Z,10.05
2022-10-11T00:18:38.704Z,13.90
2022-10-11T00:21:10.647Z,11.77
2022-10-11T00:23:37.663Z,12.10
2022-10-11T00:26:05.934Z,14.07
2022-10-11T00:28:33.168Z,12.48
2022-10-11T00:31:00.215Z,11.73
2022-10-11T00:33:27.140Z,12.93
2022-10-11T00:35:54.150Z,12.20
2022-10-11T00:38:21.885Z,11.63
2022-10-11T00:40:48.825Z,11.07
2022-10-11T00:43:17.965Z,10.52
2022-10-11T00:45:57.081Z,10.30
2022-10-11T00:48:50.959Z,9.15
2022-10-11T00:51:30.690Z,10.13
2022-10-11T00:53:57.887Z,10.63
2022-10-11T00:56:26.629Z,9.73
2022-10-11T00:58:53.538Z,10.85
2022-10-11T01:01:20.496Z,10.50
2022-10-11T01:03:47.410Z,9.98
2022-10-11T01:06:14.333Z,10.90
2022-10-11T01:08:41.236Z,10.90
2022-10-11T01:11:14.075Z,11.65
2022-10-11T01:13:44.011Z,11.63
2022-10-11T01:17:05.447Z,11.48
2022-10-11T01:19:44.461Z,11.65
2022-10-11T01:22:45.239Z,10.68
2022-10-11T01:25:29.617Z,9.23
2022-10-11T01:27:59.280Z,12.38
2022-10-11T01:30:30.216Z,10.13
2022-10-11T01:33:28.144Z,9.68
2022-10-11T01:36:16.915Z,8.98
2022-10-11T01:38:50.212Z,9.60
2022-10-11T01:41:21.633Z,11.45
2022-10-11T01:43:49.680Z,12.60
2022-10-11T01:46:16.570Z,10.98
2022-10-11T01:48:48.221Z,11.80
2022-10-11T01:51:15.096Z,13.60
2022-10-11T01:53:51.032Z,10.32
2022-10-11T01:56:52.060Z,9.93
2022-10-11T01:59:51.449Z,9.07
2022-10-11T02:02:39.751Z,10.05
2022-10-11T02:05:13.827Z,11.27
2022-10-11T02:08:05.234Z,10.45
2022-10-11T02:10:37.570Z,11.30
2022-10-11T02:13:12.315Z,10.27
2022-10-11T02:15:40.383Z,10.40
2022-10-11T02:18:12.874Z,11.25
2022-10-11T02:20:40.454Z,11.00
2022-10-11T02:23:34.218Z,9.95
2022-10-11T02:26:01.351Z,10.50
2022-10-11T02:28:30.322Z,12.00
2022-10-11T02:30:58.181Z,12.45
2022-10-11T02:33:28.236Z,12.02
2022-10-11T02:36:03.316Z,10.25
2022-10-11T02:38:34.804Z,10.40
2022-10-11T02:41:12.057Z,12.37
2022-10-11T02:43:41.659Z,11.82
2022-10-11T02:46:09.109Z,10.52
2022-10-11T02:48:36.373Z,11.48
2022-10-11T02:51:03.851Z,9.45
2022-10-11T02:53:31.205Z,12.45
2022-10-11T02:55:58.184Z,10.07
2022-10-11T02:58:25.400Z,12.23
2022-10-11T03:00:52.316Z,10.75
2022-10-11T03:03:19.404Z,12.95
2022-10-11T03:05:46.308Z,10.02
2022-10-11T03:08:14.652Z,9.88
2022-10-11T03:10:41.629Z,10.05
2022-10-11T03:13:08.628Z,10.73
2022-10-11T03:15:35.487Z,9.48
2022-10-11T03:18:02.432Z,11.20
2022-10-11T03:20:29.263Z,10.85
2022-10-11T03:22:56.170Z,12.05
2022-10-11T03:25:23.126Z,9.57
2022-10-11T03:27:50.061Z,10.13
2022-10-11T03:30:18.436Z,10.98
2022-10-11T03:32:45.676Z,11.55
2022-10-11T03:35:12.592Z,9.50
2022-10-11T03:37:39.526Z,12.05
2022-10-11T03:40:08.379Z,10.57
2022-10-11T03:42:35.814Z,9.98
2022-10-11T03:45:08.003Z,11.73
2022-10-11T03:47:38.373Z,10.65
2022-10-11T03:50:08.863Z,10.75
2022-10-11T03:52:35.885Z,9.30
2022-10-11T03:55:02.837Z,10.05
2022-10-11T03:57:30.550Z,8.88
2022-10-11T03:59:57.844Z,9.90
2022-10-11T04:02:24.834Z,11.50
2022-10-11T04:04:51.678Z,9.80
2022-10-11T04:07:18.723Z,13.23
2022-10-11T04:09:45.883Z,9.98
2022-10-11T04:12:12.812Z,11.55
2022-10-11T04:14:40.637Z,12.15
2022-10-11T04:17:07.611Z,10.52
2022-10-11T04:19:36.790Z,10.93
2022-10-11T04:22:04.885Z,8.82
2022-10-11T04:24:32.204Z,10.88
2022-10-11T04:26:59.382Z,10.40
2022-10-11T04:29:30.119Z,9.02
2022-10-11T04:31:59.570Z,8.52
2022-10-11T04:34:26.480Z,12.60
2022-10-11T04:36:53.395Z,9.80
2022-10-11T04:39:20.602Z,10.70
2022-10-11T04:41:47.539Z,9.18
2022-10-11T04:44:14.470Z,11.75
2022-10-11T04:46:41.414Z,11.90
2022-10-11T04:49:08.940Z,10.18
2022-10-11T04:51:35.931Z,9.82
2022-10-11T04:54:02.836Z,10.40
2022-10-11T04:56:30.702Z,10.02
2022-10-11T04:58:57.726Z,9.57
2022-10-11T05:01:24.637Z,9.70
2022-10-11T05:03:51.567Z,8.68
2022-10-11T05:06:18.539Z,10.73
2022-10-11T05:08:45.472Z,9.18
2022-10-11T05:11:15.754Z,9.63
2022-10-11T05:13:43.404Z,8.43
2022-10-11T05:16:14.060Z,9.85
2022-10-11T05:18:41.087Z,9.80
2022-10-11T05:21:09.144Z,10.15
2022-10-11T05:23:36.488Z,8.85
2022-10-11T05:26:03.953Z,8.75
2022-10-11T05:28:31.253Z,8.68
2022-10-11T05:30:58.233Z,9.02
2022-10-11T05:33:25.374Z,12.73
2022-10-11T05:35:52.965Z,10.35
2022-10-11T05:38:19.944Z,9.93
2022-10-11T05:40:47.013Z,10.18
2022-10-11T05:43:13.924Z,11.05
2022-10-11T05:45:41.741Z,11.27
2022-10-11T05:48:08.974Z,9.00
2022-10-11T05:50:36.118Z,11.50
2022-10-11T05:53:03.469Z,9.55
2022-10-11T05:55:30.401Z,9.98
2022-10-11T05:57:57.536Z,10.57
2022-10-11T06:00:24.841Z,10.40
2022-10-11T06:02:51.829Z,9.55
2022-10-11T06:05:18.816Z,11.63
2022-10-11T06:07:45.654Z,13.02
2022-10-11T06:10:12.795Z,12.18
2022-10-11T06:12:42.204Z,16.35
2022-10-11T06:15:10.917Z,11.30
2022-10-11T06:17:38.048Z,15.38
2022-10-11T06:20:05.624Z,10.65
2022-10-11T06:22:32.646Z,12.57
2022-10-11T06:24:59.674Z,13.40
2022-10-11T06:27:26.856Z,14.25
2022-10-11T06:29:54.191Z,10.60
2022-10-11T06:32:21.126Z,12.18
2022-10-11T06:34:48.059Z,13.52
2022-10-11T06:37:15.055Z,10.52
2022-10-11T06:39:42.272Z,11.10
2022-10-11T06:42:11.213Z,12.93
2022-10-11T06:44:38.929Z,10.70
2022-10-11T06:47:06.171Z,12.38
2022-10-11T06:49:33.545Z,12.35
2022-10-11T06:52:00.475Z,11.07
2022-10-11T06:54:27.468Z,11.80
2022-10-11T06:56:54.359Z,12.27
2022-10-11T06:59:21.376Z,12.18
2022-10-11T07:01:48.266Z,12.15
2022-10-11T07:04:15.269Z,12.10
2022-10-11T07:06:42.277Z,16.50
2022-10-11T07:09:09.580Z,12.23
2022-10-11T07:11:36.511Z,13.65
2022-10-11T07:14:07.499Z,11.82
2022-10-11T07:16:35.975Z,12.68
2022-10-11T07:19:03.800Z,12.60
2022-10-11T07:21:31.878Z,12.80
2022-10-11T07:23:59.112Z,13.43
2022-10-11T07:26:26.444Z,15.10
2022-10-11T07:28:53.571Z,16.05
2022-10-11T07:31:22.663Z,17.05
2022-10-11T07:33:49.813Z,17.48
2022-10-11T07:36:16.865Z,14.15
2022-10-11T07:38:44.622Z,13.15
2022-10-11T07:41:11.675Z,11.80
2022-10-11T07:43:38.758Z,16.80
2022-10-11T07:46:06.135Z,13.25
2022-10-11T07:48:34.267Z,13.20
2022-10-11T07:51:15.220Z,12.73
2022-10-11T07:53:43.497Z,14.10
2022-10-11T07:56:12.519Z,14.23
2022-10-11T07:58:40.366Z,13.05
2022-10-11T08:01:07.998Z,10.48
2022-10-11T08:03:35.070Z,13.70
2022-10-11T08:06:03.266Z,12.48
2022-10-11T08:08:31.274Z,15.07
2022-10-11T08:10:59.186Z,15.50
2022-10-11T08:13:26.245Z,15.02
2022-10-11T08:15:53.170Z,11.38
2022-10-11T08:18:20.119Z,14.38
2022-10-11T08:20:47.100Z,13.68
2022-10-11T08:23:14.156Z,12.23
2022-10-11T08:25:42.608Z,14.23
2022-10-11T08:28:10.285Z,13.85
2022-10-11T08:30:37.300Z,13.57
2022-10-11T08:33:08.481Z,13.23
2022-10-11T08:35:36.446Z,12.93
2022-10-11T08:38:03.368Z,13.57
2022-10-11T08:40:34.954Z,12.10
2022-10-11T08:43:07.076Z,13.32
2022-10-11T08:45:44.511Z,11.35
2022-10-11T08:48:20.162Z,12.45
2022-10-11T08:50:48.061Z,16.35
2022-10-11T08:53:36.568Z,13.48
2022-10-11T08:56:04.013Z,13.68
2022-10-11T08:58:40.570Z,13.98
2022-10-11T09:01:07.704Z,14.80
2022-10-11T09:03:45.085Z,14.95
2022-10-11T09:07:07.515Z,12.73
2022-10-11T09:09:56.173Z,11.73
2022-10-11T09:12:41.524Z,13.80
2022-10-11T09:15:25.269Z,16.48
2022-10-11T09:17:58.827Z,15.30
2022-10-11T09:20:37.757Z,14.88
2022-10-11T09:23:16.476Z,15.48
2022-10-11T09:26:04.196Z,14.57
2022-10-11T09:28:47.079Z,15.15
2022-10-11T09:31:14.234Z,14.20
2022-10-11T09:33:48.601Z,15.50
2022-10-11T09:36:22.805Z,16.40
2022-10-11T09:39:18.143Z,22.20
2022-10-11T09:41:49.359Z,16.92
2022-10-11T09:44:24.331Z,15.77
2022-10-11T09:46:52.881Z,17.48
2022-10-11T09:49:21.701Z,19.73
2022-10-11T09:51:54.230Z,17.08
2022-10-11T09:54:27.448Z,13.88
2022-10-11T09:56:54.534Z,16.30
2022-10-11T09:59:28.817Z,16.38
2022-10-11T10:02:16.777Z,17.60
2022-10-11T10:05:21.964Z,15.77
2022-10-11T10:08:04.505Z,15.80
2022-10-11T10:10:32.152Z,16.13
2022-10-11T10:13:00.722Z,13.02
2022-10-11T10:15:34.913Z,16.83
2022-10-11T10:18:01.948Z,14.93
2022-10-11T10:20:31.915Z,17.00
2022-10-11T10:23:05.062Z,19.70
2022-10-11T10:25:37.485Z,13.73
2022-10-11T10:28:26.169Z,17.35
2022-10-11T10:30:57.828Z,14.65
2022-10-11T10:33:31.399Z,14.30
2022-10-11T10:36:18.902Z,8.60
2022-10-11T10:38:52.131Z,13.38
2022-10-11T10:41:19.361Z,9.55
2022-10-11T10:43:53.725Z,9.52
2022-10-11T10:46:33.279Z,12.18
2022-10-11T10:52:31.011Z,9.45
2022-10-11T10:55:07.768Z,10.23
2022-10-11T10:57:59.299Z,11.05
2022-10-11T11:00:26.537Z,10.88
2022-10-11T11:03:03.146Z,10.45
2022-10-11T11:05:54.661Z,11.52
2022-10-11T11:08:33.424Z,11.20
2022-10-11T11:11:09.385Z,14.57
2022-10-11T11:14:00.376Z,12.45
2022-10-11T11:16:35.977Z,8.40
2022-10-11T11:19:48.305Z,10.68
2022-10-11T11:25:21.208Z,13.25
2022-10-11T11:27:51.053Z,10.80
2022-10-11T11:30:41.324Z,10.20
2022-10-11T11:33:29.823Z,12.30
2022-10-11T11:35:58.112Z,9.20
2022-10-11T11:38:29.276Z,9.50
2022-10-11T11:41:06.010Z,12.70
2022-10-11T11:43:47.308Z,11.43
2022-10-11T11:46:16.799Z,10.68
2022-10-11T11:48:43.791Z,9.35
2022-10-11T11:51:17.703Z,10.25
2022-10-11T11:53:59.476Z,10.25
2022-10-11T11:56:35.286Z,17.80
2022-10-11T11:59:14.925Z,10.68
2022-10-11T12:02:26.577Z,11.70
2022-10-11T12:04:53.648Z,10.23
2022-10-11T12:07:25.213Z,10.95
2022-10-11T12:10:38.213Z,9.95
2022-10-11T12:13:17.773Z,10.32
2022-10-11T12:16:04.206Z,11.13
2022-10-11T12:18:31.738Z,11.25
2022-10-11T12:21:19.584Z,10.77
2022-10-11T12:23:48.656Z,8.32
2022-10-11T12:26:40.181Z,10.80
2022-10-11T12:29:28.478Z,9.18
2022-10-11T12:31:59.120Z,11.75
2022-10-11T12:34:37.167Z,10.30
2022-10-11T12:37:19.917Z,8.85
2022-10-11T12:39:50.883Z,9.90
2022-10-11T12:42:28.729Z,7.80
2022-10-11T12:45:18.905Z,10.98
2022-10-11T12:47:48.882Z,10.23
2022-10-11T12:50:41.589Z,10.27
2022-10-11T12:53:57.688Z,10.77
2022-10-11T12:57:07.275Z,10.75
2022-10-11T12:59:40.601Z,9.15
2022-10-11T13:02:28.729Z,8.73
2022-10-11T13:05:27.555Z,9.85
2022-10-11T13:07:57.321Z,11.05
2022-10-11T13:10:36.824Z,11.98
2022-10-11T13:13:04.589Z,9.75
2022-10-11T13:15:31.757Z,9.73
2022-10-11T13:18:00.177Z,11.73
2022-10-11T13:20:30.509Z,9.27
2022-10-11T13:22:57.496Z,10.45
2022-10-11T13:25:36.595Z,9.35
2022-10-11T13:28:03.686Z,10.88
2022-10-11T13:30:32.093Z,9.30
2022-10-11T13:33:02.083Z,10.82
2022-10-11T13:35:33.656Z,9.55
2022-10-11T13:38:00.787Z,11.18
2022-10-11T13:40:28.110Z,11.98
2022-10-11T13:42:55.292Z,10.43
2022-10-11T13:45:24.177Z,8.93
2022-10-11T13:47:53.695Z,10.30
2022-10-11T13:50:30.408Z,10.43
2022-10-11T13:53:07.153Z,10.13
2022-10-11T13:55:35.717Z,10.88
2022-10-11T13:58:04.634Z,11.18
2022-10-11T14:00:34.079Z,10.20
2022-10-11T14:03:13.151Z,12.48
2022-10-11T14:05:41.294Z,11.40
2022-10-11T14:08:19.392Z,8.63
2022-10-11T14:10:47.285Z,10.70
2022-10-11T14:13:34.681Z,9.50
2022-10-11T14:16:05.668Z,7.07
2022-10-11T14:18:33.787Z,9.70
2022-10-11T14:21:24.952Z,9.85
2022-10-11T14:23:52.721Z,12.30
2022-10-11T14:26:19.821Z,7.25
2022-10-11T14:28:49.668Z,10.85
2022-10-11T14:31:16.660Z,7.22
2022-10-11T14:33:43.570Z,10.32
2022-10-11T14:36:10.460Z,9.23
2022-10-11T14:38:37.377Z,11.65
2022-10-11T14:41:04.351Z,9.50
2022-10-11T14:43:31.315Z,9.20
2022-10-11T14:45:58.294Z,10.48
2022-10-11T14:48:53.863Z,10.18
2022-10-11T14:51:12.422Z,11.00
2022-10-11T14:53:46.153Z,11.07
2022-10-11T14:56:17.719Z,8.98
2022-10-11T14:58:47.383Z,7.78
2022-10-11T15:01:14.940Z,8.85
2022-10-11T15:03:42.024Z,9.75
2022-10-11T15:06:21.951Z,9.23
2022-10-11T15:08:49.017Z,10.00
2022-10-11T15:11:17.112Z,13.77
2022-10-11T15:13:44.207Z,7.95
2022-10-11T15:16:12.728Z,9.45
2022-10-11T15:18:39.824Z,9.20
2022-10-11T15:21:07.124Z,6.95
2022-10-11T15:23:34.021Z,7.93
2022-10-11T15:26:00.910Z,9.30
2022-10-11T15:28:29.749Z,7.95
2022-10-11T15:30:57.066Z,10.98
2022-10-11T15:33:24.333Z,9.50
2022-10-11T15:35:51.345Z,11.63
2022-10-11T15:38:23.158Z,9.93
2022-10-11T15:40:50.628Z,8.90
2022-10-11T15:43:21.996Z,9.07
2022-10-11T15:45:51.726Z,9.80
2022-10-11T15:48:21.712Z,8.65
2022-10-11T15:50:49.402Z,9.52
2022-10-11T15:53:17.205Z,8.68
2022-10-11T15:55:51.773Z,7.85
2022-10-11T15:58:24.660Z,8.73
2022-10-11T16:00:55.815Z,8.60
2022-10-11T16:03:26.956Z,8.35
2022-10-11T16:05:54.087Z,9.93
2022-10-11T16:08:21.402Z,9.68
2022-10-11T16:10:48.467Z,9.43
2022-10-11T16:13:15.631Z,10.85
2022-10-11T16:15:42.814Z,7.65
2022-10-11T16:18:11.347Z,8.15
2022-10-11T16:20:43.243Z,7.10
2022-10-11T16:23:10.582Z,9.30
2022-10-11T16:25:37.557Z,6.90
2022-10-11T16:28:04.811Z,8.40
2022-10-11T16:30:31.866Z,12.05
2022-10-11T16:32:58.878Z,8.77
2022-10-11T16:35:30.181Z,8.85
2022-10-11T16:37:59.680Z,10.65
2022-10-11T16:40:28.267Z,9.35
2022-10-11T16:42:55.297Z,7.57
2022-10-11T16:45:22.405Z,7.75
2022-10-11T16:47:49.354Z,7.25
2022-10-11T16:50:16.251Z,7.07
2022-10-11T16:52:43.232Z,8.70
2022-10-11T16:55:10.182Z,7.30
2022-10-11T16:57:37.929Z,11.40
2022-10-11T17:00:06.962Z,6.38
2022-10-11T17:02:33.948Z,8.65
2022-10-11T17:05:00.845Z,6.97
2022-10-11T17:07:27.900Z,8.20
2022-10-11T17:09:55.031Z,10.75
2022-10-11T17:12:23.032Z,9.57
2022-10-11T17:14:50.284Z,10.68
2022-10-11T17:17:17.633Z,11.40
2022-10-11T17:19:45.542Z,8.00
2022-10-11T17:22:13.967Z,11.07
2022-10-11T17:24:40.840Z,9.32
2022-10-11T17:27:08.062Z,8.13
2022-10-11T17:29:35.131Z,11.13
2022-10-11T17:32:02.194Z,8.50
2022-10-11T17:34:29.145Z,8.73
2022-10-11T17:36:56.296Z,11.23
2022-10-11T17:39:23.663Z,8.50
2022-10-11T17:41:50.975Z,9.52
2022-10-11T17:44:18.470Z,9.07
2022-10-11T17:46:45.810Z,9.95
2022-10-11T17:49:12.950Z,10.13
2022-10-11T17:51:40.570Z,10.55
2022-10-11T17:54:12.380Z,8.70
2022-10-11T17:59:06.747Z,10.60
2022-10-11T18:01:33.961Z,10.15
2022-10-11T18:04:03.246Z,11.02
2022-10-11T18:06:31.932Z,10.02
2022-10-11T18:09:02.734Z,11.38
2022-10-11T18:11:29.885Z,8.98
2022-10-11T18:13:56.939Z,11.80
2022-10-11T18:16:26.958Z,11.20
2022-10-11T18:18:54.210Z,12.73
2022-10-11T18:21:21.189Z,10.85
2022-10-11T18:23:48.092Z,11.05
2022-10-11T18:26:25.497Z,10.45
2022-10-11T18:28:56.863Z,9.57
2022-10-11T18:31:25.730Z,11.80
2022-10-11T18:33:53.090Z,11.70
2022-10-11T18:36:22.177Z,10.95
2022-10-11T18:38:51.912Z,10.82
2022-10-11T18:41:20.286Z,10.63
2022-10-11T18:43:54.582Z,11.00
2022-10-11T18:46:21.968Z,10.35
2022-10-11T18:48:50.201Z,9.75
2022-10-11T18:51:19.457Z,11.90
2022-10-11T18:53:46.625Z,10.95
2022-10-11T18:56:14.125Z,12.50
2022-10-11T18:58:41.386Z,12.40
2022-10-11T19:01:09.116Z,14.13
2022-10-11T19:03:36.282Z,11.20
2022-10-11T19:06:09.003Z,11.48
2022-10-11T19:08:36.245Z,11.73
2022-10-11T19:11:07.273Z,12.65
2022-10-11T19:13:34.846Z,9.98
2022-10-11T19:16:07.041Z,12.02
2022-10-11T19:18:34.273Z,14.77
2022-10-11T19:21:05.761Z,14.77
2022-10-11T19:23:36.527Z,13.82
2022-10-11T19:26:03.894Z,11.23
2022-10-11T19:28:31.088Z,13.57
2022-10-11T19:31:02.925Z,13.18
2022-10-11T19:33:31.598Z,13.43
2022-10-11T19:35:58.752Z,13.95
2022-10-11T19:38:25.844Z,13.43
2022-10-11T19:40:53.009Z,14.45
2022-10-11T19:43:19.959Z,11.93
2022-10-11T19:45:46.933Z,11.32
2022-10-11T19:48:13.911Z,12.40
2022-10-11T19:50:41.061Z,13.05
2022-10-11T19:53:08.044Z,11.93
2022-10-11T19:55:35.451Z,15.73
2022-10-11T19:58:08.046Z,12.68
2022-10-11T20:00:35.310Z,15.93
2022-10-11T20:03:02.345Z,13.68
2022-10-11T20:05:29.205Z,25.45
2022-10-11T20:07:56.269Z,13.32
2022-10-11T20:10:23.270Z,14.45
2022-10-11T20:12:50.406Z,19.45
2022-10-11T20:15:17.411Z,25.40
2022-10-11T20:17:50.204Z,21.52
2022-10-11T20:20:17.977Z,21.40
2022-10-11T20:22:44.970Z,21.52
2022-10-11T20:25:11.900Z,21.63
2022-10-11T20:27:42.451Z,19.08
2022-10-11T20:30:10.247Z,20.77
2022-10-11T20:32:37.191Z,20.38
2022-10-11T20:35:04.456Z,19.52
2022-10-11T20:37:31.822Z,18.85
2022-10-11T20:39:58.965Z,19.10
2022-10-11T20:42:29.750Z,16.67
2022-10-11T20:44:57.155Z,21.63
2022-10-11T20:47:24.060Z,22.38
2022-10-11T20:49:51.000Z,18.20
2022-10-11T20:52:18.007Z,20.25
2022-10-11T20:54:44.926Z,20.20
2022-10-11T20:57:11.895Z,19.13
2022-10-11T20:59:38.771Z,19.00
2022-10-11T21:02:05.679Z,18.98
2022-10-11T21:04:32.684Z,18.10
2022-10-11T21:06:59.600Z,18.08
2022-10-11T21:09:26.624Z,20.83
2022-10-11T21:11:53.644Z,20.02
2022-10-11T21:14:20.590Z,18.25
2022-10-11T21:16:47.537Z,20.95
2022-10-11T21:19:15.262Z,19.38
2022-10-11T21:21:42.405Z,19.48
2022-10-11T21:24:09.458Z,18.33
2022-10-11T21:26:36.347Z,19.90
2022-10-11T21:29:04.198Z,18.65
2022-10-11T21:31:34.050Z,17.00
2022-10-11T21:34:02.137Z,18.83
2022-10-11T21:36:29.087Z,16.92
2022-10-11T21:38:56.407Z,19.13
2022-10-11T21:41:25.487Z,17.75
2022-10-11T21:43:52.536Z,18.83
2022-10-11T21:46:47.576Z,16.08
2022-10-11T21:49:14.052Z,19.73
2022-10-11T21:51:40.973Z,16.05
2022-10-11T21:54:08.022Z,17.85
2022-10-11T21:56:35.120Z,18.90
2022-10-11T21:59:02.086Z,19.05
2022-10-11T22:01:29.108Z,21.88
2022-10-11T22:03:56.119Z,18.15
2022-10-11T22:06:23.089Z,16.05
2022-10-11T22:08:50.193Z,17.00
2022-10-11T22:11:17.196Z,17.30
2022-10-11T22:13:44.234Z,18.73
2022-10-11T22:16:12.143Z,19.05
2022-10-11T22:18:39.275Z,21.42
2022-10-11T22:21:13.750Z,17.50
2022-10-11T22:23:41.429Z,16.60
2022-10-11T22:26:10.868Z,17.80
2022-10-11T22:28:37.922Z,19.58
2022-10-11T22:31:05.691Z,17.30
2022-10-11T22:33:32.632Z,18.40
2022-10-11T22:36:00.597Z,19.13
2022-10-11T22:38:27.668Z,21.17
2022-10-11T22:40:54.775Z,20.10
2022-10-11T22:43:21.674Z,20.40
2022-10-11T22:45:48.614Z,18.50
2022-10-11T22:48:15.587Z,19.88
2022-10-11T22:50:42.558Z,17.42
2022-10-11T22:53:12.062Z,17.83
2022-10-11T22:55:39.093Z,18.42
2022-10-11T22:58:06.138Z,16.48
2022-10-11T23:00:33.125Z,18.63
2022-10-11T23:03:00.251Z,18.70
2022-10-11T23:05:27.097Z,17.65
2022-10-11T23:07:53.985Z,18.38
2022-10-11T23:10:20.953Z,16.15
2022-10-11T23:12:48.003Z,18.20
2022-10-11T23:15:15.390Z,15.52
2022-10-11T23:17:42.576Z,19.50
2022-10-11T23:20:10.034Z,16.92
2022-10-11T23:22:36.969Z,19.65
2022-10-11T23:25:04.533Z,16.75
2022-10-11T23:27:31.507Z,17.60
2022-10-11T23:29:58.360Z,17.75
2022-10-11T23:32:25.296Z,16.58
2022-10-11T23:34:52.228Z,16.98
2022-10-11T23:37:19.335Z,16.13
2022-10-11T23:39:46.183Z,18.38
2022-10-11T23:42:13.219Z,16.10
2022-10-11T23:44:40.110Z,14.68
2022-10-11T23:47:07.010Z,17.33
2022-10-11T23:49:33.911Z,14.93
2022-10-11T23:52:01.067Z,16.65
2022-10-11T23:54:28.181Z,15.40
2022-10-11T23:56:55.126Z,16.77
2022-10-11T23:59:25.233Z,16.52
